Time;durP1;ratioP1;P1;durP2;ratioP2;P2;SDS_P1;SDS_P2;PMS_P1;PMS_P2;Temp;Humidity;BMP_temperature;BMP_pressure;BME280_temperature;BME280_humidity;BME280_pressure;Samples;Min_cycle;Max_cycle;Signal;HPM_P1;HPM_P2
2022/03/31 00:00:39;;;;;;;33.72;11.73;;;;;;;;;;5011522;28;20034;-61
2022/03/31 00:03:08;;;;;;;32.13;11.05;;;;;;;;;;5012887;28;20045;-61
2022/03/31 00:05:34;;;;;;;30.70;11.07;;;;;;;;;;5016423;28;20026;-61
2022/03/31 00:08:03;;;;;;;29.80;11.05;;;;;;;;;;5014573;28;20026;-61
2022/03/31 00:10:31;;;;;;;30.30;10.43;;;;;;;;;;5017223;28;20033;-61
2022/03/31 00:12:59;;;;;;;31.33;11.02;;;;;;;;;;5020236;28;20468;-61
2022/03/31 00:15:27;;;;;;;23.67;9.93;;;;;;;;;;5011196;28;20049;-61
2022/03/31 00:17:55;;;;;;;25.50;9.55;;;;;;;;;;5011031;28;20080;-61
2022/03/31 00:20:20;;;;;;;29.67;9.43;;;;;;;;;;5012412;28;20063;-61
2022/03/31 00:22:46;;;;;;;26.58;9.57;;;;;;;;;;5015697;28;20041;-61
2022/03/31 00:25:13;;;;;;;25.50;9.70;;;;;;;;;;5015368;28;22451;-62
2022/03/31 00:27:40;;;;;;;20.45;9.98;;;;;;;;;;5017461;28;20029;-59
2022/03/31 00:30:08;;;;;;;21.50;9.50;;;;;;;;;;5017864;28;20042;-62
2022/03/31 00:32:34;;;;;;;27.75;9.32;;;;;;;;;;5025872;28;20033;-61
2022/03/31 00:35:01;;;;;;;21.58;8.77;;;;;;;;;;5022521;28;20057;-62
2022/03/31 00:37:28;;;;;;;31.83;8.90;;;;;;;;;;5017625;28;20026;-61
2022/03/31 00:39:55;;;;;;;25.63;8.07;;;;;;;;;;5014410;28;20601;-62
2022/03/31 00:42:21;;;;;;;23.08;8.02;;;;;;;;;;5016990;28;20034;-61
2022/03/31 00:44:48;;;;;;;22.60;7.93;;;;;;;;;;5025591;28;20022;-61
2022/03/31 00:47:15;;;;;;;20.90;8.05;;;;;;;;;;5020478;28;20112;-61
2022/03/31 00:49:41;;;;;;;19.50;7.68;;;;;;;;;;5019290;28;20080;-61
2022/03/31 00:52:07;;;;;;;21.67;9.50;;;;;;;;;;5013927;28;20037;-62
2022/03/31 00:54:34;;;;;;;21.80;9.02;;;;;;;;;;5018082;28;20045;-62
2022/03/31 00:57:03;;;;;;;18.40;9.05;;;;;;;;;;5018209;28;20119;-61
2022/03/31 00:59:30;;;;;;;26.08;9.18;;;;;;;;;;5019740;28;20070;-62
2022/03/31 01:01:57;;;;;;;23.52;9.23;;;;;;;;;;5025105;28;20033;-61
2022/03/31 01:04:22;;;;;;;21.17;9.13;;;;;;;;;;5026167;28;20041;-61
2022/03/31 01:06:49;;;;;;;19.52;8.07;;;;;;;;;;5018980;28;20038;-61
2022/03/31 01:09:15;;;;;;;26.23;8.45;;;;;;;;;;5017434;28;20444;-61
2022/03/31 01:11:41;;;;;;;18.08;7.82;;;;;;;;;;5019075;28;20061;-61
2022/03/31 01:14:08;;;;;;;18.05;7.40;;;;;;;;;;5019751;28;20506;-61
2022/03/31 01:16:35;;;;;;;22.83;8.45;;;;;;;;;;5014771;28;20037;-61
2022/03/31 01:19:05;;;;;;;17.42;6.93;;;;;;;;;;5018509;28;20090;-61
2022/03/31 01:21:42;;;;;;;21.52;7.53;;;;;;;;;;5012723;28;20064;-61
2022/03/31 01:24:10;;;;;;;16.08;7.28;;;;;;;;;;5015082;28;20087;-61
2022/03/31 01:26:40;;;;;;;21.02;7.22;;;;;;;;;;5021077;28;20034;-61
2022/03/31 01:29:08;;;;;;;26.42;6.80;;;;;;;;;;5022320;28;20368;-61
2022/03/31 01:31:35;;;;;;;17.15;7.00;;;;;;;;;;5020604;28;20453;-61
2022/03/31 01:34:01;;;;;;;16.38;6.35;;;;;;;;;;5015576;28;20390;-61
2022/03/31 01:36:27;;;;;;;19.50;6.55;;;;;;;;;;5020326;28;20045;-61
2022/03/31 01:38:55;;;;;;;16.23;6.80;;;;;;;;;;5026383;28;20434;-61
2022/03/31 01:41:23;;;;;;;17.33;6.50;;;;;;;;;;5020421;28;20109;-61
2022/03/31 01:43:50;;;;;;;19.08;6.05;;;;;;;;;;5021088;28;20041;-61
2022/03/31 01:46:16;;;;;;;17.67;6.38;;;;;;;;;;5053770;28;20737;-61
2022/03/31 01:48:42;;;;;;;20.75;5.43;;;;;;;;;;5016958;28;20029;-61
2022/03/31 01:51:07;;;;;;;14.52;5.88;;;;;;;;;;5024760;28;20033;-61
2022/03/31 01:53:35;;;;;;;15.10;5.57;;;;;;;;;;5012380;28;20514;-61
2022/03/31 01:56:02;;;;;;;12.38;4.75;;;;;;;;;;5018167;28;20406;-61
2022/03/31 01:58:28;;;;;;;11.57;5.15;;;;;;;;;;5018130;28;20037;-61
2022/03/31 02:00:54;;;;;;;16.95;5.35;;;;;;;;;;5014864;28;20041;-61
2022/03/31 02:03:19;;;;;;;22.48;5.50;;;;;;;;;;5025973;28;20041;-61
2022/03/31 02:05:45;;;;;;;16.90;5.22;;;;;;;;;;5017994;28;20038;-61
2022/03/31 02:08:11;;;;;;;11.75;4.75;;;;;;;;;;5015245;28;20056;-61
2022/03/31 02:10:37;;;;;;;13.05;4.47;;;;;;;;;;5015254;28;20072;-61
2022/03/31 02:13:03;;;;;;;24.17;5.35;;;;;;;;;;5017908;28;20033;-61
2022/03/31 02:15:31;;;;;;;18.33;3.85;;;;;;;;;;5017743;28;20029;-61
2022/03/31 02:17:57;;;;;;;13.55;4.50;;;;;;;;;;5020622;28;20034;-61
2022/03/31 02:20:25;;;;;;;11.80;4.13;;;;;;;;;;5019868;28;20034;-62
2022/03/31 02:22:51;;;;;;;18.23;4.07;;;;;;;;;;5015597;28;20467;-61
2022/03/31 02:25:17;;;;;;;16.95;4.72;;;;;;;;;;5011671;28;20040;-62
2022/03/31 02:27:42;;;;;;;18.73;4.15;;;;;;;;;;5019721;28;20029;-61
2022/03/31 02:30:09;;;;;;;18.10;5.22;;;;;;;;;;5014981;28;20037;-62
2022/03/31 02:32:37;;;;;;;14.82;4.18;;;;;;;;;;5015180;28;20402;-61
2022/03/31 02:35:05;;;;;;;16.05;4.38;;;;;;;;;;5015701;28;20034;-61
2022/03/31 02:37:31;;;;;;;15.52;4.30;;;;;;;;;;5018962;28;20036;-61
2022/03/31 02:39:57;;;;;;;17.35;4.47;;;;;;;;;;5016657;28;20043;-61
2022/03/31 02:42:23;;;;;;;20.13;5.68;;;;;;;;;;5018338;28;20057;-61
2022/03/31 02:44:49;;;;;;;23.23;4.35;;;;;;;;;;5020991;28;20629;-61
2022/03/31 02:47:15;;;;;;;22.83;4.40;;;;;;;;;;5019348;28;20033;-61
2022/03/31 02:49:41;;;;;;;15.85;3.92;;;;;;;;;;5018317;28;20029;-61
2022/03/31 02:52:07;;;;;;;14.57;5.45;;;;;;;;;;5015355;28;20029;-61
2022/03/31 02:57:18;;;;;;;15.68;3.50;;;;;;;;;;5015669;28;20049;-61
2022/03/31 02:59:45;;;;;;;13.57;3.28;;;;;;;;;;5015591;28;20781;-61
2022/03/31 03:02:10;;;;;;;9.68;4.10;;;;;;;;;;5023020;28;20042;-61
2022/03/31 03:04:36;;;;;;;14.85;3.75;;;;;;;;;;5018209;28;20492;-61
2022/03/31 03:07:02;;;;;;;13.50;3.67;;;;;;;;;;5017098;28;20037;-61
2022/03/31 03:09:28;;;;;;;14.32;4.60;;;;;;;;;;5013853;28;20057;-61
2022/03/31 03:11:54;;;;;;;11.63;3.70;;;;;;;;;;5020597;28;20446;-61
2022/03/31 03:14:19;;;;;;;10.13;3.60;;;;;;;;;;5015458;28;20022;-60
2022/03/31 03:16:45;;;;;;;12.63;3.88;;;;;;;;;;5016578;28;20049;-61
2022/03/31 03:19:12;;;;;;;14.68;3.53;;;;;;;;;;5016577;28;20474;-61
2022/03/31 03:21:38;;;;;;;13.75;3.83;;;;;;;;;;5010893;28;20075;-62
2022/03/31 03:24:04;;;;;;;13.32;3.38;;;;;;;;;;5016713;28;20403;-61
2022/03/31 03:26:30;;;;;;;13.70;3.53;;;;;;;;;;5013787;28;20025;-61
2022/03/31 03:28:56;;;;;;;15.38;4.07;;;;;;;;;;5015155;28;20056;-61
2022/03/31 03:31:22;;;;;;;16.50;4.25;;;;;;;;;;5014928;28;20041;-61
2022/03/31 03:33:48;;;;;;;17.35;3.85;;;;;;;;;;5015853;28;20026;-62
2022/03/31 03:36:16;;;;;;;8.13;3.28;;;;;;;;;;5020378;28;20029;-62
2022/03/31 03:41:17;;;;;;;19.25;3.80;;;;;;;;;;4546350;22;20567;-62
2022/03/31 03:43:44;;;;;;;9.90;3.83;;;;;;;;;;5031247;28;20253;-61
2022/03/31 03:46:10;;;;;;;19.23;5.38;;;;;;;;;;5028343;28;20045;-61
2022/03/31 03:48:36;;;;;;;12.63;3.90;;;;;;;;;;5027748;28;20022;-61
2022/03/31 03:51:02;;;;;;;18.20;3.88;;;;;;;;;;5040039;28;20136;-62
2022/03/31 03:53:27;;;;;;;13.95;3.97;;;;;;;;;;5028463;28;20029;-62
2022/03/31 03:55:53;;;;;;;10.57;3.63;;;;;;;;;;5031591;28;20037;-62
2022/03/31 03:58:19;;;;;;;27.17;3.85;;;;;;;;;;5026620;28;20045;-61
2022/03/31 04:00:45;;;;;;;10.65;3.00;;;;;;;;;;5032431;28;20025;-62
2022/03/31 04:03:11;;;;;;;17.73;3.63;;;;;;;;;;5030983;28;20033;-62
2022/03/31 04:05:38;;;;;;;11.48;3.55;;;;;;;;;;5035818;28;20045;-62
2022/03/31 04:08:04;;;;;;;8.57;3.20;;;;;;;;;;5035399;28;20104;-62
2022/03/31 04:10:30;;;;;;;12.32;3.80;;;;;;;;;;5034369;28;20060;-61
2022/03/31 04:12:55;;;;;;;12.45;3.83;;;;;;;;;;5035962;28;20060;-61
2022/03/31 04:15:22;;;;;;;10.25;3.55;;;;;;;;;;5034447;28;20043;-61
2022/03/31 04:17:48;;;;;;;11.95;4.32;;;;;;;;;;5030536;28;20041;-61
2022/03/31 04:20:13;;;;;;;18.60;4.10;;;;;;;;;;5028340;28;20060;-61
2022/03/31 04:22:59;;;;;;;7.95;3.30;;;;;;;;;;5034871;28;20037;-61
2022/03/31 04:25:44;;;;;;;14.23;3.90;;;;;;;;;;5033914;28;20033;-61
2022/03/31 04:28:30;;;;;;;16.85;3.72;;;;;;;;;;5028196;28;20495;-61
2022/03/31 04:30:56;;;;;;;17.13;3.88;;;;;;;;;;5034058;28;20029;-61
2022/03/31 04:33:21;;;;;;;14.80;5.05;;;;;;;;;;5032563;28;20025;-61
2022/03/31 04:35:47;;;;;;;16.38;4.47;;;;;;;;;;5032866;28;20448;-61
2022/03/31 04:38:13;;;;;;;14.88;4.18;;;;;;;;;;5034489;28;20029;-62
2022/03/31 04:40:39;;;;;;;16.57;4.37;;;;;;;;;;4985276;28;1380132;-61
2022/03/31 04:43:05;;;;;;;9.80;3.63;;;;;;;;;;5034923;28;20498;-61
2022/03/31 04:45:30;;;;;;;12.30;3.85;;;;;;;;;;5034907;28;20036;-62
2022/03/31 04:47:56;;;;;;;17.38;3.90;;;;;;;;;;5030919;28;20030;-61
2022/03/31 04:50:22;;;;;;;15.20;4.22;;;;;;;;;;5038199;28;20060;-61
2022/03/31 04:52:48;;;;;;;15.25;4.30;;;;;;;;;;5034864;28;20461;-61
2022/03/31 04:55:13;;;;;;;18.20;4.53;;;;;;;;;;5034315;28;20492;-61
2022/03/31 04:57:39;;;;;;;16.42;4.50;;;;;;;;;;5034005;28;20029;-60
2022/03/31 05:00:06;;;;;;;11.80;3.70;;;;;;;;;;5029988;28;20097;-61
2022/03/31 05:02:32;;;;;;;14.55;4.47;;;;;;;;;;5034251;28;20544;-62
2022/03/31 05:04:58;;;;;;;13.65;4.10;;;;;;;;;;5035207;28;20045;-58
2022/03/31 05:07:24;;;;;;;11.05;3.88;;;;;;;;;;5034917;28;20693;-61
2022/03/31 05:09:49;;;;;;;20.70;3.78;;;;;;;;;;5032607;28;20079;-61
2022/03/31 05:12:15;;;;;;;12.60;3.65;;;;;;;;;;5033328;28;20072;-61
2022/03/31 05:14:41;;;;;;;18.92;4.72;;;;;;;;;;5017238;28;20451;-61
2022/03/31 05:17:06;;;;;;;13.98;4.32;;;;;;;;;;5037489;28;20033;-61
2022/03/31 05:19:33;;;;;;;15.90;4.53;;;;;;;;;;5038500;28;20493;-61
2022/03/31 05:21:58;;;;;;;14.60;4.30;;;;;;;;;;5041828;28;20386;-61
2022/03/31 05:24:24;;;;;;;8.65;4.00;;;;;;;;;;5032246;28;20028;-61
2022/03/31 05:26:53;;;;;;;13.63;4.75;;;;;;;;;;5031551;28;20465;-61
2022/03/31 05:29:20;;;;;;;23.08;4.43;;;;;;;;;;5036411;28;20069;-61
2022/03/31 05:31:46;;;;;;;10.77;4.50;;;;;;;;;;5030885;28;20029;-61
2022/03/31 05:34:12;;;;;;;10.90;4.60;;;;;;;;;;5034126;28;20497;-61
2022/03/31 05:36:38;;;;;;;20.17;5.50;;;;;;;;;;5033712;28;20505;-61
2022/03/31 05:39:04;;;;;;;15.95;4.80;;;;;;;;;;5028518;28;20034;-61
2022/03/31 05:41:30;;;;;;;16.30;5.10;;;;;;;;;;5037220;28;20087;-61
2022/03/31 05:43:56;;;;;;;18.17;4.80;;;;;;;;;;5033950;28;20525;-61
2022/03/31 05:46:23;;;;;;;17.88;5.35;;;;;;;;;;5033505;28;20037;-61
2022/03/31 05:48:49;;;;;;;21.95;5.40;;;;;;;;;;5033657;28;20032;-61
2022/03/31 05:51:15;;;;;;;14.18;4.45;;;;;;;;;;5031204;28;20509;-61
2022/03/31 05:53:41;;;;;;;18.85;5.07;;;;;;;;;;5034184;28;20036;-61
2022/03/31 05:56:07;;;;;;;20.50;4.20;;;;;;;;;;5026884;28;20033;-61
2022/03/31 05:58:34;;;;;;;15.77;5.07;;;;;;;;;;5025432;28;20052;-61
2022/03/31 06:00:59;;;;;;;11.07;4.82;;;;;;;;;;5028539;28;20390;-60
2022/03/31 06:03:25;;;;;;;17.70;5.25;;;;;;;;;;5028348;28;20037;-61
2022/03/31 06:05:51;;;;;;;24.90;5.50;;;;;;;;;;5028853;28;20095;-61
2022/03/31 06:08:17;;;;;;;17.17;4.53;;;;;;;;;;5036968;28;20028;-61
2022/03/31 06:10:44;;;;;;;16.33;4.65;;;;;;;;;;5038261;28;20029;-61
2022/03/31 06:13:11;;;;;;;17.20;5.85;;;;;;;;;;5039651;28;20061;-61
2022/03/31 06:15:37;;;;;;;14.20;5.93;;;;;;;;;;5033595;28;20052;-61
2022/03/31 06:18:04;;;;;;;25.00;7.32;;;;;;;;;;5029398;28;20029;-62
2022/03/31 06:20:31;;;;;;;15.07;5.97;;;;;;;;;;5048225;28;20489;-61
2022/03/31 06:22:57;;;;;;;11.38;4.90;;;;;;;;;;5026818;28;20500;-61
2022/03/31 06:25:23;;;;;;;21.17;5.53;;;;;;;;;;5032124;28;20503;-62
2022/03/31 06:27:49;;;;;;;25.73;5.35;;;;;;;;;;5024836;28;20034;-61
2022/03/31 06:30:16;;;;;;;19.20;5.40;;;;;;;;;;5025809;28;20034;-61
2022/03/31 06:32:42;;;;;;;14.77;4.70;;;;;;;;;;5025141;28;20029;-61
2022/03/31 06:35:11;;;;;;;17.48;4.78;;;;;;;;;;5033867;28;20029;-61
2022/03/31 06:37:39;;;;;;;12.43;4.55;;;;;;;;;;5034638;28;20044;-61
2022/03/31 06:40:05;;;;;;;22.08;4.80;;;;;;;;;;5041237;28;20053;-61
2022/03/31 06:42:31;;;;;;;19.77;6.30;;;;;;;;;;5033815;28;20049;-61
2022/03/31 06:44:57;;;;;;;20.63;6.90;;;;;;;;;;5029278;28;20038;-61
2022/03/31 06:47:23;;;;;;;20.38;4.90;;;;;;;;;;5035427;28;20048;-61
2022/03/31 06:49:48;;;;;;;19.02;5.65;;;;;;;;;;5032283;28;20029;-61
2022/03/31 06:52:14;;;;;;;10.52;4.15;;;;;;;;;;5032521;28;20033;-61
2022/03/31 06:54:40;;;;;;;20.45;4.95;;;;;;;;;;5025229;28;20091;-61
2022/03/31 06:57:06;;;;;;;18.77;5.22;;;;;;;;;;5025616;28;20164;-61
2022/03/31 06:59:31;;;;;;;15.93;4.82;;;;;;;;;;5033497;28;20052;-61
2022/03/31 07:01:57;;;;;;;14.95;5.00;;;;;;;;;;5033026;28;20083;-61
2022/03/31 07:04:23;;;;;;;25.55;5.75;;;;;;;;;;5031923;28;20029;-62
2022/03/31 07:06:49;;;;;;;25.52;5.65;;;;;;;;;;5032902;28;20032;-61
2022/03/31 07:09:15;;;;;;;22.50;5.57;;;;;;;;;;5029769;28;20033;-62
2022/03/31 07:11:41;;;;;;;13.35;4.85;;;;;;;;;;5030793;28;20025;-60
2022/03/31 07:14:07;;;;;;;22.25;4.88;;;;;;;;;;5026276;28;20056;-62
2022/03/31 07:16:33;;;;;;;14.32;4.90;;;;;;;;;;5027966;28;20405;-61
2022/03/31 07:19:01;;;;;;;14.95;5.90;;;;;;;;;;5026904;28;20037;-60
2022/03/31 07:21:27;;;;;;;17.55;5.10;;;;;;;;;;5017645;28;20030;-60
2022/03/31 07:23:53;;;;;;;19.45;6.13;;;;;;;;;;5022981;28;20389;-60
2022/03/31 07:26:19;;;;;;;18.63;5.43;;;;;;;;;;5022500;28;20028;-60
2022/03/31 07:28:45;;;;;;;22.17;5.43;;;;;;;;;;5027120;28;20712;-62
2022/03/31 07:31:11;;;;;;;15.40;5.68;;;;;;;;;;5031881;28;20074;-60
2022/03/31 07:33:37;;;;;;;18.38;5.22;;;;;;;;;;5021202;28;20032;-60
2022/03/31 07:36:04;;;;;;;17.02;5.72;;;;;;;;;;5026898;28;20030;-61
2022/03/31 07:38:29;;;;;;;23.77;5.88;;;;;;;;;;5028686;28;20029;-60
2022/03/31 07:40:55;;;;;;;20.05;5.65;;;;;;;;;;5017510;28;20122;-60
2022/03/31 07:43:21;;;;;;;18.55;5.32;;;;;;;;;;5011776;28;20068;-60
2022/03/31 07:45:47;;;;;;;18.55;5.68;;;;;;;;;;5017589;28;20481;-60
2022/03/31 07:48:15;;;;;;;15.25;5.28;;;;;;;;;;5017895;28;20030;-60
2022/03/31 07:50:41;;;;;;;19.70;6.03;;;;;;;;;;5020185;28;20030;-60
2022/03/31 07:53:09;;;;;;;21.95;5.75;;;;;;;;;;5027492;28;20120;-60
2022/03/31 07:55:34;;;;;;;19.33;6.00;;;;;;;;;;5022278;28;20025;-60
2022/03/31 07:58:00;;;;;;;32.80;5.82;;;;;;;;;;5013396;28;20484;-61
2022/03/31 08:00:26;;;;;;;18.88;5.55;;;;;;;;;;5021786;28;20484;-60
2022/03/31 08:02:52;;;;;;;15.30;5.55;;;;;;;;;;5023553;28;20037;-61
2022/03/31 08:05:24;;;;;;;17.20;5.75;;;;;;;;;;5025411;28;20659;-61
2022/03/31 08:07:50;;;;;;;26.33;5.72;;;;;;;;;;5017733;28;20107;-61
2022/03/31 08:10:17;;;;;;;16.77;5.45;;;;;;;;;;5015645;28;20030;-61
2022/03/31 08:12:44;;;;;;;16.35;5.68;;;;;;;;;;5017820;28;20038;-61
2022/03/31 08:15:10;;;;;;;23.40;5.85;;;;;;;;;;5017126;28;20034;-61
2022/03/31 08:17:38;;;;;;;14.88;5.60;;;;;;;;;;5020226;28;20115;-61
2022/03/31 08:20:07;;;;;;;18.42;5.95;;;;;;;;;;5018577;28;20433;-61
2022/03/31 08:22:32;;;;;;;15.63;5.75;;;;;;;;;;5016137;28;20049;-61
2022/03/31 08:24:59;;;;;;;17.50;5.80;;;;;;;;;;5020711;28;20071;-61
2022/03/31 08:27:26;;;;;;;20.15;5.07;;;;;;;;;;5019462;28;20049;-60
2022/03/31 08:29:51;;;;;;;14.35;5.22;;;;;;;;;;5019562;28;20033;-61
2022/03/31 08:32:17;;;;;;;26.42;5.80;;;;;;;;;;5022183;28;20554;-61
2022/03/31 08:34:42;;;;;;;20.33;6.00;;;;;;;;;;5020532;28;20445;-61
2022/03/31 08:37:08;;;;;;;14.70;5.05;;;;;;;;;;5015219;28;20033;-60
2022/03/31 08:39:34;;;;;;;20.23;5.55;;;;;;;;;;5017776;28;20079;-60
2022/03/31 08:42:00;;;;;;;17.50;6.47;;;;;;;;;;5009268;28;20701;-60
2022/03/31 08:44:26;;;;;;;15.77;6.10;;;;;;;;;;5018230;28;20394;-60
2022/03/31 08:46:52;;;;;;;23.25;5.85;;;;;;;;;;5021091;28;20087;-60
2022/03/31 08:49:19;;;;;;;19.45;5.68;;;;;;;;;;5021085;28;20030;-60
2022/03/31 08:51:46;;;;;;;16.88;5.32;;;;;;;;;;5016792;28;20096;-62
2022/03/31 08:54:12;;;;;;;19.25;6.45;;;;;;;;;;5021613;28;20476;-60
2022/03/31 08:56:38;;;;;;;23.02;6.00;;;;;;;;;;5024873;28;20037;-60
2022/03/31 08:59:06;;;;;;;16.92;5.43;;;;;;;;;;5020511;28;20034;-60
2022/03/31 09:01:32;;;;;;;16.17;5.43;;;;;;;;;;5022226;28;20386;-60
2022/03/31 09:03:58;;;;;;;19.63;5.57;;;;;;;;;;5022097;28;20086;-60
2022/03/31 09:06:28;;;;;;;19.23;5.07;;;;;;;;;;5022225;28;20050;-61
2022/03/31 09:08:54;;;;;;;12.07;4.80;;;;;;;;;;5019563;28;20049;-61
2022/03/31 09:11:35;;;;;;;15.25;5.43;;;;;;;;;;5023188;28;20080;-60
2022/03/31 09:14:03;;;;;;;16.48;4.72;;;;;;;;;;5034310;28;20033;-54
2022/03/31 09:16:35;;;;;;;14.70;4.80;;;;;;;;;;5020520;28;20489;-60
2022/03/31 09:19:09;;;;;;;23.20;5.13;;;;;;;;;;5022041;28;20037;-60
2022/03/31 09:21:48;;;;;;;16.83;5.20;;;;;;;;;;5016039;28;20025;-60
2022/03/31 09:24:16;;;;;;;16.17;4.82;;;;;;;;;;5022603;28;20068;-61
2022/03/31 09:26:46;;;;;;;16.10;4.60;;;;;;;;;;5017929;28;20036;-60
2022/03/31 09:29:13;;;;;;;15.35;4.13;;;;;;;;;;5024931;28;20029;-60
2022/03/31 09:31:40;;;;;;;19.08;4.72;;;;;;;;;;5020599;28;20064;-57
2022/03/31 09:34:07;;;;;;;14.68;4.93;;;;;;;;;;5011958;28;20410;-60
2022/03/31 09:36:33;;;;;;;11.38;4.50;;;;;;;;;;5018313;28;20515;-60
2022/03/31 09:39:17;;;;;;;10.00;4.25;;;;;;;;;;5016480;28;20034;-61
2022/03/31 09:41:47;;;;;;;9.32;3.83;;;;;;;;;;5022703;28;20403;-60
2022/03/31 09:44:16;;;;;;;14.90;5.10;;;;;;;;;;5025934;28;20081;-60
2022/03/31 09:46:43;;;;;;;13.40;4.28;;;;;;;;;;5014826;28;20034;-58
2022/03/31 09:49:28;;;;;;;9.82;4.22;;;;;;;;;;5014764;28;20029;-60
2022/03/31 09:51:56;;;;;;;17.17;3.72;;;;;;;;;;5020220;28;20041;-60
2022/03/31 09:54:25;;;;;;;16.10;4.47;;;;;;;;;;5018484;28;20030;-60
2022/03/31 09:56:51;;;;;;;11.05;3.17;;;;;;;;;;5018653;28;20037;-60
2022/03/31 09:59:17;;;;;;;15.13;3.67;;;;;;;;;;5019147;28;20078;-60
2022/03/31 10:01:44;;;;;;;14.10;3.35;;;;;;;;;;5015985;28;20121;-60
2022/03/31 10:04:12;;;;;;;10.93;4.18;;;;;;;;;;5019632;28;20064;-60
2022/03/31 10:06:43;;;;;;;16.17;3.90;;;;;;;;;;5014596;28;20048;-60
2022/03/31 10:09:12;;;;;;;10.10;3.58;;;;;;;;;;5018456;28;20520;-60
2022/03/31 10:11:41;;;;;;;12.20;3.30;;;;;;;;;;5020344;28;20040;-59
2022/03/31 10:14:25;;;;;;;14.80;3.03;;;;;;;;;;5020759;28;20537;-59
2022/03/31 10:17:05;;;;;;;12.10;3.40;;;;;;;;;;5015332;28;20436;-60
2022/03/31 10:19:42;;;;;;;6.47;3.78;;;;;;;;;;5025555;28;20025;-60
2022/03/31 10:25:09;;;;;;;14.55;4.10;;;;;;;;;;5014635;28;20067;-60
2022/03/31 10:27:38;;;;;;;16.20;3.60;;;;;;;;;;5013004;28;20048;-60
2022/03/31 10:30:25;;;;;;;13.85;3.63;;;;;;;;;;5019523;28;20029;-61
2022/03/31 10:33:02;;;;;;;9.90;3.85;;;;;;;;;;5020624;28;20034;-60
2022/03/31 10:35:45;;;;;;;9.23;3.30;;;;;;;;;;5020231;28;20124;-60
2022/03/31 10:38:19;;;;;;;14.02;3.92;;;;;;;;;;5028084;28;20030;-60
2022/03/31 10:40:59;;;;;;;14.90;4.47;;;;;;;;;;5018806;28;20113;-60
2022/03/31 10:43:27;;;;;;;12.10;4.07;;;;;;;;;;5023104;28;20052;-60
2022/03/31 10:45:58;;;;;;;15.13;4.05;;;;;;;;;;5017073;28;20101;-60
2022/03/31 10:48:26;;;;;;;19.57;4.53;;;;;;;;;;5023386;28;20131;-61
2022/03/31 10:51:10;;;;;;;9.48;4.10;;;;;;;;;;5016449;28;20038;-59
2022/03/31 10:53:39;;;;;;;19.60;4.35;;;;;;;;;;5017091;28;20120;-60
2022/03/31 10:56:38;;;;;;;9.15;3.40;;;;;;;;;;5016350;28;20100;-60
2022/03/31 10:59:06;;;;;;;14.15;3.70;;;;;;;;;;4971409;28;20487;-61
2022/03/31 11:01:35;;;;;;;12.00;4.50;;;;;;;;;;4973484;28;20034;-60
2022/03/31 11:04:02;;;;;;;17.17;4.45;;;;;;;;;;4972191;28;20038;-60
2022/03/31 11:06:29;;;;;;;11.02;4.78;;;;;;;;;;4968460;28;20109;-60
2022/03/31 11:08:55;;;;;;;18.73;5.00;;;;;;;;;;4969887;28;20077;-60
2022/03/31 11:11:29;;;;;;;20.67;5.22;;;;;;;;;;4971605;28;20486;-60
2022/03/31 11:13:58;;;;;;;27.13;4.55;;;;;;;;;;4954571;28;20578;-60
2022/03/31 11:16:37;;;;;;;19.02;4.97;;;;;;;;;;4970069;28;20049;-60
2022/03/31 11:19:04;;;;;;;30.23;5.43;;;;;;;;;;4979712;28;20574;-61
2022/03/31 11:21:42;;;;;;;15.82;4.60;;;;;;;;;;4969608;28;20301;-60
2022/03/31 11:24:10;;;;;;;23.08;4.70;;;;;;;;;;4973263;28;20045;-60
2022/03/31 11:26:43;;;;;;;21.08;4.93;;;;;;;;;;4969837;28;20030;-60
2022/03/31 11:29:12;;;;;;;22.33;4.82;;;;;;;;;;4973610;28;20174;-60
2022/03/31 11:31:52;;;;;;;21.52;6.15;;;;;;;;;;4970516;28;20431;-60
2022/03/31 11:34:23;;;;;;;20.85;5.72;;;;;;;;;;4991754;28;20398;-60
2022/03/31 11:36:53;;;;;;;21.13;4.97;;;;;;;;;;5025117;28;20030;-60
2022/03/31 11:39:28;;;;;;;15.05;4.47;;;;;;;;;;5020672;28;20601;-60
2022/03/31 11:41:55;;;;;;;22.77;4.75;;;;;;;;;;5025063;28;20049;-60
2022/03/31 11:44:22;;;;;;;18.40;4.95;;;;;;;;;;5026248;28;20139;-59
2022/03/31 11:46:49;;;;;;;24.63;4.70;;;;;;;;;;5019199;28;20034;-60
2022/03/31 11:49:18;;;;;;;14.70;4.60;;;;;;;;;;5026471;28;20029;-60
2022/03/31 11:51:49;;;;;;;17.30;4.10;;;;;;;;;;5021047;28;20128;-60
2022/03/31 11:54:15;;;;;;;12.13;4.28;;;;;;;;;;5019823;28;20382;-60
2022/03/31 11:56:41;;;;;;;10.30;3.63;;;;;;;;;;5015185;28;20063;-60
2022/03/31 11:59:07;;;;;;;13.85;5.18;;;;;;;;;;5017254;28;20041;-60
2022/03/31 12:01:34;;;;;;;15.95;4.43;;;;;;;;;;5017383;28;20496;-61
2022/03/31 12:04:00;;;;;;;15.23;4.07;;;;;;;;;;5017199;28;20065;-60
2022/03/31 12:06:27;;;;;;;13.93;3.90;;;;;;;;;;5021386;28;20110;-61
2022/03/31 12:08:55;;;;;;;14.88;4.22;;;;;;;;;;5011983;28;20033;-61
2022/03/31 12:11:22;;;;;;;11.00;4.10;;;;;;;;;;5016868;28;20037;-60
2022/03/31 12:13:51;;;;;;;7.80;3.72;;;;;;;;;;5036078;28;20163;-61
2022/03/31 12:16:17;;;;;;;10.93;4.10;;;;;;;;;;5026575;28;20030;-61
2022/03/31 12:18:43;;;;;;;17.02;3.72;;;;;;;;;;5017990;28;20649;-60
2022/03/31 12:21:10;;;;;;;11.75;4.25;;;;;;;;;;5017319;28;20033;-60
2022/03/31 12:23:41;;;;;;;18.08;5.00;;;;;;;;;;5018252;28;20037;-60
2022/03/31 12:26:12;;;;;;;13.60;3.50;;;;;;;;;;5014397;28;20502;-60
2022/03/31 12:28:43;;;;;;;12.48;4.00;;;;;;;;;;5017915;28;20493;-60
2022/03/31 12:31:37;;;;;;;8.80;3.40;;;;;;;;;;5022179;28;20056;-61
2022/03/31 12:34:03;;;;;;;10.98;3.40;;;;;;;;;;5020458;28;20090;-61
2022/03/31 12:36:34;;;;;;;7.63;3.53;;;;;;;;;;5013619;28;20025;-61
2022/03/31 12:39:04;;;;;;;11.15;3.78;;;;;;;;;;5014995;28;20053;-60
2022/03/31 12:41:36;;;;;;;11.85;3.88;;;;;;;;;;5021700;28;20045;-61
2022/03/31 12:44:10;;;;;;;10.88;4.00;;;;;;;;;;5016387;28;20509;-61
2022/03/31 12:46:38;;;;;;;12.27;3.25;;;;;;;;;;5017796;28;20041;-61
2022/03/31 12:49:12;;;;;;;9.98;3.45;;;;;;;;;;5023700;28;20040;-61
2022/03/31 12:51:41;;;;;;;10.98;3.10;;;;;;;;;;5021698;28;20104;-61
2022/03/31 12:54:24;;;;;;;8.60;3.45;;;;;;;;;;5017700;28;20145;-61
2022/03/31 12:56:52;;;;;;;7.25;3.28;;;;;;;;;;5021234;28;20029;-61
2022/03/31 12:59:23;;;;;;;8.73;3.17;;;;;;;;;;5017364;28;20534;-61
2022/03/31 13:02:03;;;;;;;9.00;3.00;;;;;;;;;;5018984;28;20025;-61
2022/03/31 13:04:30;;;;;;;7.85;2.60;;;;;;;;;;5020976;28;20041;-60
2022/03/31 13:06:56;;;;;;;5.95;2.63;;;;;;;;;;5023685;28;20042;-61
2022/03/31 13:09:22;;;;;;;9.50;2.90;;;;;;;;;;5020946;28;20546;-61
2022/03/31 13:11:51;;;;;;;6.88;3.22;;;;;;;;;;5020467;28;20033;-61
2022/03/31 13:14:20;;;;;;;10.23;3.47;;;;;;;;;;5014271;28;20833;-61
2022/03/31 13:16:47;;;;;;;9.95;4.20;;;;;;;;;;5015191;28;20033;-61
2022/03/31 13:19:13;;;;;;;12.57;3.63;;;;;;;;;;5022792;28;20026;-61
2022/03/31 13:21:40;;;;;;;5.57;2.95;;;;;;;;;;5017866;28;20108;-59
2022/03/31 13:24:07;;;;;;;6.97;2.22;;;;;;;;;;5013666;28;20125;-61
2022/03/31 13:26:34;;;;;;;6.65;2.17;;;;;;;;;;5015785;28;20026;-61
2022/03/31 13:29:04;;;;;;;3.20;2.15;;;;;;;;;;5019721;28;20025;-60
2022/03/31 13:31:31;;;;;;;12.10;2.40;;;;;;;;;;5017893;28;20124;-61
2022/03/31 13:33:59;;;;;;;8.57;2.45;;;;;;;;;;5016922;28;20064;-61
2022/03/31 13:36:27;;;;;;;7.90;2.50;;;;;;;;;;5015316;28;20038;-60
2022/03/31 13:38:53;;;;;;;6.82;2.05;;;;;;;;;;5016684;28;20049;-61
2022/03/31 13:41:20;;;;;;;7.32;1.98;;;;;;;;;;5018041;28;20041;-61
2022/03/31 13:43:46;;;;;;;4.28;1.98;;;;;;;;;;5012471;28;20041;-61
2022/03/31 13:46:11;;;;;;;6.05;2.08;;;;;;;;;;5016738;28;20033;-61
2022/03/31 13:48:37;;;;;;;6.47;2.20;;;;;;;;;;5023004;28;20099;-61
2022/03/31 13:51:03;;;;;;;3.50;1.92;;;;;;;;;;5014294;28;20025;-60
2022/03/31 13:53:43;;;;;;;6.20;1.90;;;;;;;;;;5013415;28;20022;-61
2022/03/31 13:56:10;;;;;;;6.47;1.98;;;;;;;;;;5016152;28;20026;-61
2022/03/31 14:01:20;;;;;;;7.07;2.40;;;;;;;;;;5017036;28;20554;-61
2022/03/31 14:03:48;;;;;;;6.13;2.10;;;;;;;;;;5018841;28;20038;-61
2022/03/31 14:06:20;;;;;;;6.40;2.15;;;;;;;;;;5012489;28;20049;-61
2022/03/31 14:08:47;;;;;;;5.22;2.13;;;;;;;;;;5021677;28;20710;-61
2022/03/31 14:11:13;;;;;;;7.10;2.05;;;;;;;;;;5014783;28;20055;-61
2022/03/31 14:13:39;;;;;;;5.95;2.15;;;;;;;;;;5023110;28;20474;-62
2022/03/31 14:16:06;;;;;;;8.20;2.17;;;;;;;;;;5031020;28;20033;-61
2022/03/31 14:18:36;;;;;;;4.50;2.50;;;;;;;;;;5020835;28;20477;-62
2022/03/31 14:21:02;;;;;;;6.97;2.40;;;;;;;;;;5019547;28;20032;-61
2022/03/31 14:23:29;;;;;;;13.15;2.92;;;;;;;;;;5021442;28;20061;-61
2022/03/31 14:25:58;;;;;;;4.85;2.50;;;;;;;;;;5023126;28;20040;-62
2022/03/31 14:28:36;;;;;;;3.45;2.88;;;;;;;;;;5025845;28;20379;-62
2022/03/31 14:31:05;;;;;;;8.77;2.65;;;;;;;;;;5024091;28;20032;-61
2022/03/31 14:33:31;;;;;;;6.35;2.45;;;;;;;;;;5021466;28;20061;-61
2022/03/31 14:35:57;;;;;;;8.80;2.95;;;;;;;;;;5026962;28;20422;-62
2022/03/31 14:38:25;;;;;;;8.68;2.13;;;;;;;;;;5024689;28;20027;-61
2022/03/31 14:40:55;;;;;;;12.40;2.97;;;;;;;;;;5021233;28;20045;-61
2022/03/31 14:43:23;;;;;;;7.68;2.05;;;;;;;;;;5023310;28;20034;-61
2022/03/31 14:45:49;;;;;;;7.78;2.20;;;;;;;;;;5018412;28;20061;-61